sensor_id;sensor_type;location;lat;lon;timestamp;temperature;humidity
678;DHT22;321;48.814;9.132;2023-04-24T00:00:55;12.00;99.90
678;DHT22;321;48.814;9.132;2023-04-24T00:03:26;12.10;99.90
678;DHT22;321;48.814;9.132;2023-04-24T00:05:53;12.20;99.90
678;DHT22;321;48.814;9.132;2023-04-24T00:08:19;12.30;99.90
678;DHT22;321;48.814;9.132;2023-04-24T00:10:45;12.30;99.90
678;DHT22;321;48.814;9.132;2023-04-24T00:13:10;12.30;99.90
678;DHT22;321;48.814;9.132;2023-04-24T00:15:36;12.40;99.90
678;DHT22;321;48.814;9.132;2023-04-24T00:18:01;12.30;99.90
678;DHT22;321;48.814;9.132;2023-04-24T00:20:28;12.40;99.90
678;DHT22;321;48.814;9.132;2023-04-24T00:22:55;12.40;99.90
678;DHT22;321;48.814;9.132;2023-04-24T00:25:21;12.30;99.90
678;DHT22;321;48.814;9.132;2023-04-24T00:27:46;12.50;99.90
678;DHT22;321;48.814;9.132;2023-04-24T00:30:12;12.50;99.90
678;DHT22;321;48.814;9.132;2023-04-24T00:32:38;12.40;99.90
678;DHT22;321;48.814;9.132;2023-04-24T00:35:04;12.40;99.90
678;DHT22;321;48.814;9.132;2023-04-24T00:37:31;12.40;99.90
678;DHT22;321;48.814;9.132;2023-04-24T00:39:56;12.50;99.90
678;DHT22;321;48.814;9.132;2023-04-24T00:42:22;12.50;99.90
678;DHT22;321;48.814;9.132;2023-04-24T00:44:48;12.50;99.90
678;DHT22;321;48.814;9.132;2023-04-24T00:47:14;12.60;99.90
678;DHT22;321;48.814;9.132;2023-04-24T00:49:39;12.50;99.90
678;DHT22;321;48.814;9.132;2023-04-24T00:52:06;12.50;99.90
678;DHT22;321;48.814;9.132;2023-04-24T00:54:34;12.50;99.90
678;DHT22;321;48.814;9.132;2023-04-24T00:57:00;12.50;99.90
678;DHT22;321;48.814;9.132;2023-04-24T00:59:26;12.50;99.90
678;DHT22;321;48.814;9.132;2023-04-24T01:01:52;12.60;99.90
678;DHT22;321;48.814;9.132;2023-04-24T01:04:18;12.70;99.90
678;DHT22;321;48.814;9.132;2023-04-24T01:06:44;12.80;99.90
678;DHT22;321;48.814;9.132;2023-04-24T01:09:11;12.80;99.90
678;DHT22;321;48.814;9.132;2023-04-24T01:11:37;12.80;99.90
678;DHT22;321;48.814;9.132;2023-04-24T01:14:03;12.70;99.90
678;DHT22;321;48.814;9.132;2023-04-24T01:16:29;12.80;99.90
678;DHT22;321;48.814;9.132;2023-04-24T01:18:55;12.80;99.90
678;DHT22;321;48.814;9.132;2023-04-24T01:21:21;12.90;99.90
678;DHT22;321;48.814;9.132;2023-04-24T01:23:47;13.00;99.90
678;DHT22;321;48.814;9.132;2023-04-24T01:26:17;13.00;99.90
678;DHT22;321;48.814;9.132;2023-04-24T01:28:45;13.00;99.90
678;DHT22;321;48.814;9.132;2023-04-24T01:31:11;13.00;99.90
678;DHT22;321;48.814;9.132;2023-04-24T01:33:37;13.00;99.90
678;DHT22;321;48.814;9.132;2023-04-24T01:36:03;13.10;99.90
678;DHT22;321;48.814;9.132;2023-04-24T01:38:28;13.00;99.90
678;DHT22;321;48.814;9.132;2023-04-24T01:40:54;12.90;99.90
678;DHT22;321;48.814;9.132;2023-04-24T01:43:20;12.80;99.90
678;DHT22;321;48.814;9.132;2023-04-24T01:45:46;12.70;99.90
678;DHT22;321;48.814;9.132;2023-04-24T01:48:12;12.60;99.90
678;DHT22;321;48.814;9.132;2023-04-24T01:50:38;12.60;99.90
678;DHT22;321;48.814;9.132;2023-04-24T01:53:04;12.60;99.90
678;DHT22;321;48.814;9.132;2023-04-24T01:55:29;12.60;99.90
678;DHT22;321;48.814;9.132;2023-04-24T01:57:56;12.60;99.90
678;DHT22;321;48.814;9.132;2023-04-24T02:00:22;12.50;99.90
678;DHT22;321;48.814;9.132;2023-04-24T02:02:48;12.40;99.90
678;DHT22;321;48.814;9.132;2023-04-24T02:05:13;12.40;99.90
678;DHT22;321;48.814;9.132;2023-04-24T02:07:39;12.60;99.90
678;DHT22;321;48.814;9.132;2023-04-24T02:10:05;12.70;99.90
678;DHT22;321;48.814;9.132;2023-04-24T02:12:31;12.70;99.90
678;DHT22;321;48.814;9.132;2023-04-24T02:14:56;12.50;99.90
678;DHT22;321;48.814;9.132;2023-04-24T02:17:22;12.60;99.90
678;DHT22;321;48.814;9.132;2023-04-24T02:19:48;12.50;99.90
678;DHT22;321;48.814;9.132;2023-04-24T02:22:13;12.30;99.90
678;DHT22;321;48.814;9.132;2023-04-24T02:24:39;12.30;99.90
678;DHT22;321;48.814;9.132;2023-04-24T02:27:05;12.40;99.90
678;DHT22;321;48.814;9.132;2023-04-24T02:29:31;12.40;99.90
678;DHT22;321;48.814;9.132;2023-04-24T02:31:56;12.40;99.90
678;DHT22;321;48.814;9.132;2023-04-24T02:34:22;12.40;99.90
678;DHT22;321;48.814;9.132;2023-04-24T02:36:48;12.40;99.90
678;DHT22;321;48.814;9.132;2023-04-24T02:39:14;12.40;99.90
678;DHT22;321;48.814;9.132;2023-04-24T02:41:44;12.60;99.90
678;DHT22;321;48.814;9.132;2023-04-24T02:44:10;12.60;99.90
678;DHT22;321;48.814;9.132;2023-04-24T02:46:36;12.60;99.90
678;DHT22;321;48.814;9.132;2023-04-24T02:49:01;12.50;99.90
678;DHT22;321;48.814;9.132;2023-04-24T02:51:28;12.50;99.90
678;DHT22;321;48.814;9.132;2023-04-24T02:53:53;12.30;99.90
678;DHT22;321;48.814;9.132;2023-04-24T02:56:19;12.40;99.90
678;DHT22;321;48.814;9.132;2023-04-24T02:58:44;12.30;99.90
678;DHT22;321;48.814;9.132;2023-04-24T03:01:10;12.30;99.90
678;DHT22;321;48.814;9.132;2023-04-24T03:03:37;12.50;99.90
678;DHT22;321;48.814;9.132;2023-04-24T03:06:03;12.40;99.90
678;DHT22;321;48.814;9.132;2023-04-24T03:08:31;12.60;99.90
678;DHT22;321;48.814;9.132;2023-04-24T03:10:57;12.60;99.90
678;DHT22;321;48.814;9.132;2023-04-24T03:13:22;12.60;99.90
678;DHT22;321;48.814;9.132;2023-04-24T03:15:48;12.60;99.90
678;DHT22;321;48.814;9.132;2023-04-24T03:18:13;12.60;99.90
678;DHT22;321;48.814;9.132;2023-04-24T03:20:39;12.50;99.90
678;DHT22;321;48.814;9.132;2023-04-24T03:23:05;12.40;99.90
678;DHT22;321;48.814;9.132;2023-04-24T03:25:30;12.30;99.90
678;DHT22;321;48.814;9.132;2023-04-24T03:27:56;12.30;99.90
678;DHT22;321;48.814;9.132;2023-04-24T03:30:21;12.20;99.90
678;DHT22;321;48.814;9.132;2023-04-24T03:32:47;12.20;99.90
678;DHT22;321;48.814;9.132;2023-04-24T03:35:12;12.20;99.90
678;DHT22;321;48.814;9.132;2023-04-24T03:37:38;12.20;99.90
678;DHT22;321;48.814;9.132;2023-04-24T03:40:04;12.20;99.90
678;DHT22;321;48.814;9.132;2023-04-24T03:42:31;12.10;99.90
678;DHT22;321;48.814;9.132;2023-04-24T03:44:56;11.90;99.90
678;DHT22;321;48.814;9.132;2023-04-24T03:47:22;11.70;99.90
678;DHT22;321;48.814;9.132;2023-04-24T03:49:47;11.70;99.90
678;DHT22;321;48.814;9.132;2023-04-24T03:52:13;11.60;99.90
678;DHT22;321;48.814;9.132;2023-04-24T03:54:38;11.60;99.90
678;DHT22;321;48.814;9.132;2023-04-24T03:57:04;11.60;99.90
678;DHT22;321;48.814;9.132;2023-04-24T03:59:30;11.60;99.90
678;DHT22;321;48.814;9.132;2023-04-24T04:01:56;11.60;99.90
678;DHT22;321;48.814;9.132;2023-04-24T04:04:21;11.60;99.90
678;DHT22;321;48.814;9.132;2023-04-24T04:06:47;11.60;99.90
678;DHT22;321;48.814;9.132;2023-04-24T04:09:13;11.70;99.90
678;DHT22;321;48.814;9.132;2023-04-24T04:11:38;11.70;99.90
678;DHT22;321;48.814;9.132;2023-04-24T04:14:04;11.80;99.90
678;DHT22;321;48.814;9.132;2023-04-24T04:16:30;11.90;99.90
678;DHT22;321;48.814;9.132;2023-04-24T04:18:56;11.80;99.90
678;DHT22;321;48.814;9.132;2023-04-24T04:21:22;11.80;99.90
678;DHT22;321;48.814;9.132;2023-04-24T04:23:47;11.90;99.90
678;DHT22;321;48.814;9.132;2023-04-24T04:26:13;11.80;99.90
678;DHT22;321;48.814;9.132;2023-04-24T04:28:39;11.80;99.90
678;DHT22;321;48.814;9.132;2023-04-24T04:31:05;11.60;99.90
678;DHT22;321;48.814;9.132;2023-04-24T04:33:30;11.50;99.90
678;DHT22;321;48.814;9.132;2023-04-24T04:35:56;11.60;99.90
678;DHT22;321;48.814;9.132;2023-04-24T04:38:24;11.70;99.90
678;DHT22;321;48.814;9.132;2023-04-24T04:40:49;11.70;99.90
678;DHT22;321;48.814;9.132;2023-04-24T04:43:15;11.90;99.90
678;DHT22;321;48.814;9.132;2023-04-24T04:45:41;11.90;99.90
678;DHT22;321;48.814;9.132;2023-04-24T04:48:09;11.80;99.90
678;DHT22;321;48.814;9.132;2023-04-24T04:50:37;11.80;99.90
678;DHT22;321;48.814;9.132;2023-04-24T04:53:03;11.90;99.90
678;DHT22;321;48.814;9.132;2023-04-24T04:55:28;11.80;99.90
678;DHT22;321;48.814;9.132;2023-04-24T04:57:54;12.00;99.90
678;DHT22;321;48.814;9.132;2023-04-24T05:00:21;12.00;99.90
678;DHT22;321;48.814;9.132;2023-04-24T05:02:47;12.10;99.90
678;DHT22;321;48.814;9.132;2023-04-24T05:05:12;11.90;99.90
678;DHT22;321;48.814;9.132;2023-04-24T05:07:38;12.00;99.90
678;DHT22;321;48.814;9.132;2023-04-24T05:10:04;12.00;99.90
678;DHT22;321;48.814;9.132;2023-04-24T05:12:29;12.00;99.90
678;DHT22;321;48.814;9.132;2023-04-24T05:14:55;12.00;99.90
678;DHT22;321;48.814;9.132;2023-04-24T05:17:20;11.90;99.90
678;DHT22;321;48.814;9.132;2023-04-24T05:19:46;11.60;99.90
678;DHT22;321;48.814;9.132;2023-04-24T05:22:12;11.80;99.90
678;DHT22;321;48.814;9.132;2023-04-24T05:24:37;11.80;99.90
678;DHT22;321;48.814;9.132;2023-04-24T05:27:04;11.80;99.90
678;DHT22;321;48.814;9.132;2023-04-24T05:29:30;11.90;99.90
678;DHT22;321;48.814;9.132;2023-04-24T05:31:57;11.90;99.90
678;DHT22;321;48.814;9.132;2023-04-24T05:34:23;12.10;99.90
678;DHT22;321;48.814;9.132;2023-04-24T05:36:48;12.20;99.90
678;DHT22;321;48.814;9.132;2023-04-24T05:39:15;12.30;99.90
678;DHT22;321;48.814;9.132;2023-04-24T05:41:41;12.40;99.90
678;DHT22;321;48.814;9.132;2023-04-24T05:44:06;12.40;99.90
678;DHT22;321;48.814;9.132;2023-04-24T05:46:32;12.50;99.90
678;DHT22;321;48.814;9.132;2023-04-24T05:48:58;12.50;99.90
678;DHT22;321;48.814;9.132;2023-04-24T05:51:24;12.60;99.90
678;DHT22;321;48.814;9.132;2023-04-24T05:53:49;12.50;99.90
678;DHT22;321;48.814;9.132;2023-04-24T05:56:15;12.60;99.90
678;DHT22;321;48.814;9.132;2023-04-24T05:58:41;12.70;99.90
678;DHT22;321;48.814;9.132;2023-04-24T06:01:06;12.80;99.90
678;DHT22;321;48.814;9.132;2023-04-24T06:03:32;12.80;99.90
678;DHT22;321;48.814;9.132;2023-04-24T06:05:58;12.80;99.90
678;DHT22;321;48.814;9.132;2023-04-24T06:08:23;12.90;99.90
678;DHT22;321;48.814;9.132;2023-04-24T06:10:49;12.90;99.90
678;DHT22;321;48.814;9.132;2023-04-24T06:13:15;13.00;99.90
678;DHT22;321;48.814;9.132;2023-04-24T06:15:41;12.70;99.90
678;DHT22;321;48.814;9.132;2023-04-24T06:18:07;12.60;99.90
678;DHT22;321;48.814;9.132;2023-04-24T06:20:32;12.80;99.90
678;DHT22;321;48.814;9.132;2023-04-24T06:22:58;12.80;99.90
678;DHT22;321;48.814;9.132;2023-04-24T06:25:25;12.90;99.90
678;DHT22;321;48.814;9.132;2023-04-24T06:27:52;13.10;99.90
678;DHT22;321;48.814;9.132;2023-04-24T06:30:17;13.30;99.90
678;DHT22;321;48.814;9.132;2023-04-24T06:32:43;13.70;99.90
678;DHT22;321;48.814;9.132;2023-04-24T06:35:08;13.90;99.90
678;DHT22;321;48.814;9.132;2023-04-24T06:37:35;14.00;99.90
678;DHT22;321;48.814;9.132;2023-04-24T06:40:01;14.00;99.90
678;DHT22;321;48.814;9.132;2023-04-24T06:42:26;14.20;99.90
678;DHT22;321;48.814;9.132;2023-04-24T06:44:52;14.20;99.90
678;DHT22;321;48.814;9.132;2023-04-24T06:47:17;14.40;99.90
678;DHT22;321;48.814;9.132;2023-04-24T06:49:43;14.70;99.90
678;DHT22;321;48.814;9.132;2023-04-24T06:52:09;14.80;99.90
678;DHT22;321;48.814;9.132;2023-04-24T06:54:35;15.30;99.90
678;DHT22;321;48.814;9.132;2023-04-24T06:57:00;15.70;99.90
678;DHT22;321;48.814;9.132;2023-04-24T06:59:27;16.20;99.90
678;DHT22;321;48.814;9.132;2023-04-24T07:01:53;16.80;99.90
678;DHT22;321;48.814;9.132;2023-04-24T07:04:19;17.60;99.90
678;DHT22;321;48.814;9.132;2023-04-24T07:06:48;19.20;98.40
678;DHT22;321;48.814;9.132;2023-04-24T07:09:14;19.90;96.80
678;DHT22;321;48.814;9.132;2023-04-24T07:11:41;19.40;95.50
678;DHT22;321;48.814;9.132;2023-04-24T07:14:07;18.80;95.30
678;DHT22;321;48.814;9.132;2023-04-24T07:16:33;17.80;95.20
678;DHT22;321;48.814;9.132;2023-04-24T07:18:58;17.30;97.50
678;DHT22;321;48.814;9.132;2023-04-24T07:21:24;16.80;98.90
678;DHT22;321;48.814;9.132;2023-04-24T07:23:50;16.60;99.90
678;DHT22;321;48.814;9.132;2023-04-24T07:26:16;16.40;99.30
678;DHT22;321;48.814;9.132;2023-04-24T07:28:42;16.10;99.90
678;DHT22;321;48.814;9.132;2023-04-24T07:31:08;15.60;98.20
678;DHT22;321;48.814;9.132;2023-04-24T07:33:33;15.30;99.90
678;DHT22;321;48.814;9.132;2023-04-24T07:35:59;16.20;99.90
678;DHT22;321;48.814;9.132;2023-04-24T07:38:25;16.50;98.10
678;DHT22;321;48.814;9.132;2023-04-24T07:40:51;16.50;96.70
678;DHT22;321;48.814;9.132;2023-04-24T07:43:17;16.80;96.70
678;DHT22;321;48.814;9.132;2023-04-24T07:45:42;17.60;96.20
678;DHT22;321;48.814;9.132;2023-04-24T07:48:08;18.10;93.30
678;DHT22;321;48.814;9.132;2023-04-24T07:50:34;18.80;93.00
678;DHT22;321;48.814;9.132;2023-04-24T07:53:01;19.70;92.60
678;DHT22;321;48.814;9.132;2023-04-24T07:55:26;20.80;91.80
678;DHT22;321;48.814;9.132;2023-04-24T07:57:52;21.90;88.30
678;DHT22;321;48.814;9.132;2023-04-24T08:00:18;22.10;82.20
678;DHT22;321;48.814;9.132;2023-04-24T08:02:43;21.60;77.90
678;DHT22;321;48.814;9.132;2023-04-24T08:05:09;21.50;79.10
678;DHT22;321;48.814;9.132;2023-04-24T08:07:35;21.80;81.00
678;DHT22;321;48.814;9.132;2023-04-24T08:10:01;22.10;78.90
678;DHT22;321;48.814;9.132;2023-04-24T08:12:28;22.60;79.10
678;DHT22;321;48.814;9.132;2023-04-24T08:14:54;22.80;75.80
678;DHT22;321;48.814;9.132;2023-04-24T08:17:20;22.80;72.70
678;DHT22;321;48.814;9.132;2023-04-24T08:19:45;22.00;72.80
678;DHT22;321;48.814;9.132;2023-04-24T08:22:14;22.30;77.20
678;DHT22;321;48.814;9.132;2023-04-24T08:24:40;22.80;72.00
678;DHT22;321;48.814;9.132;2023-04-24T08:27:05;22.80;72.40
678;DHT22;321;48.814;9.132;2023-04-24T08:29:31;23.40;77.40
678;DHT22;321;48.814;9.132;2023-04-24T08:31:57;24.40;71.90
678;DHT22;321;48.814;9.132;2023-04-24T08:34:23;24.70;70.10
678;DHT22;321;48.814;9.132;2023-04-24T08:36:49;23.60;68.20
678;DHT22;321;48.814;9.132;2023-04-24T08:39:15;23.40;68.80
678;DHT22;321;48.814;9.132;2023-04-24T08:41:42;23.90;71.70
678;DHT22;321;48.814;9.132;2023-04-24T08:44:11;24.70;74.50
678;DHT22;321;48.814;9.132;2023-04-24T08:46:39;23.40;65.30
678;DHT22;321;48.814;9.132;2023-04-24T08:49:06;22.60;70.40
678;DHT22;321;48.814;9.132;2023-04-24T08:51:31;21.00;69.30
678;DHT22;321;48.814;9.132;2023-04-24T08:53:57;20.50;74.30
678;DHT22;321;48.814;9.132;2023-04-24T08:56:23;20.50;73.60
678;DHT22;321;48.814;9.132;2023-04-24T08:58:51;20.80;75.30
678;DHT22;321;48.814;9.132;2023-04-24T09:01:19;21.80;79.50
678;DHT22;321;48.814;9.132;2023-04-24T09:03:47;22.40;72.30
678;DHT22;321;48.814;9.132;2023-04-24T09:06:14;22.80;70.10
678;DHT22;321;48.814;9.132;2023-04-24T09:08:41;22.50;69.50
678;DHT22;321;48.814;9.132;2023-04-24T09:11:08;21.70;70.20
678;DHT22;321;48.814;9.132;2023-04-24T09:13:34;20.60;68.90
678;DHT22;321;48.814;9.132;2023-04-24T09:16:00;19.80;75.30
678;DHT22;321;48.814;9.132;2023-04-24T09:18:26;18.70;77.20
678;DHT22;321;48.814;9.132;2023-04-24T09:21:08;18.00;81.20
678;DHT22;321;48.814;9.132;2023-04-24T09:23:34;17.20;86.70
678;DHT22;321;48.814;9.132;2023-04-24T09:26:02;16.50;88.90
678;DHT22;321;48.814;9.132;2023-04-24T09:28:33;16.20;90.10
678;DHT22;321;48.814;9.132;2023-04-24T09:31:04;16.00;91.50
678;DHT22;321;48.814;9.132;2023-04-24T09:33:29;15.50;90.70
678;DHT22;321;48.814;9.132;2023-04-24T09:35:55;15.50;92.80
678;DHT22;321;48.814;9.132;2023-04-24T09:38:37;15.40;91.00
678;DHT22;321;48.814;9.132;2023-04-24T09:41:05;15.80;92.00
678;DHT22;321;48.814;9.132;2023-04-24T09:43:31;16.40;90.80
678;DHT22;321;48.814;9.132;2023-04-24T09:45:58;16.60;91.50
678;DHT22;321;48.814;9.132;2023-04-24T09:48:31;16.70;91.60
678;DHT22;321;48.814;9.132;2023-04-24T09:50:57;16.60;89.40
678;DHT22;321;48.814;9.132;2023-04-24T09:53:26;16.10;90.20
678;DHT22;321;48.814;9.132;2023-04-24T09:55:52;15.90;89.60
678;DHT22;321;48.814;9.132;2023-04-24T09:58:24;15.60;91.00
678;DHT22;321;48.814;9.132;2023-04-24T10:00:50;15.10;90.00
678;DHT22;321;48.814;9.132;2023-04-24T10:03:18;15.20;92.00
678;DHT22;321;48.814;9.132;2023-04-24T10:05:46;15.60;91.20
678;DHT22;321;48.814;9.132;2023-04-24T10:08:12;16.10;91.80
678;DHT22;321;48.814;9.132;2023-04-24T10:10:43;16.40;90.60
678;DHT22;321;48.814;9.132;2023-04-24T10:13:10;16.80;89.80
678;DHT22;321;48.814;9.132;2023-04-24T10:15:37;17.90;90.10
678;DHT22;321;48.814;9.132;2023-04-24T10:18:04;19.20;82.10
678;DHT22;321;48.814;9.132;2023-04-24T10:20:31;20.70;81.90
678;DHT22;321;48.814;9.132;2023-04-24T10:22:58;21.40;77.40
678;DHT22;321;48.814;9.132;2023-04-24T10:25:28;21.40;70.00
678;DHT22;321;48.814;9.132;2023-04-24T10:27:54;21.00;72.10
678;DHT22;321;48.814;9.132;2023-04-24T10:30:26;21.20;74.20
678;DHT22;321;48.814;9.132;2023-04-24T10:32:51;20.50;67.80
678;DHT22;321;48.814;9.132;2023-04-24T10:35:18;19.10;68.80
678;DHT22;321;48.814;9.132;2023-04-24T10:38:07;18.20;71.80
678;DHT22;321;48.814;9.132;2023-04-24T10:40:35;17.70;76.70
678;DHT22;321;48.814;9.132;2023-04-24T10:43:05;17.00;77.40
678;DHT22;321;48.814;9.132;2023-04-24T10:45:33;16.90;85.60
678;DHT22;321;48.814;9.132;2023-04-24T10:48:09;16.90;81.80
678;DHT22;321;48.814;9.132;2023-04-24T10:50:46;16.90;83.60
678;DHT22;321;48.814;9.132;2023-04-24T10:53:20;16.60;77.50
678;DHT22;321;48.814;9.132;2023-04-24T10:55:58;16.40;82.60
678;DHT22;321;48.814;9.132;2023-04-24T10:58:36;16.10;81.40
678;DHT22;321;48.814;9.132;2023-04-24T11:01:03;16.00;82.10
678;DHT22;321;48.814;9.132;2023-04-24T11:03:31;16.10;84.40
678;DHT22;321;48.814;9.132;2023-04-24T11:05:59;16.00;83.30
678;DHT22;321;48.814;9.132;2023-04-24T11:11:24;15.50;87.00
678;DHT22;321;48.814;9.132;2023-04-24T11:21:44;15.00;90.40
678;DHT22;321;48.814;9.132;2023-04-24T11:24:37;15.30;90.30
678;DHT22;321;48.814;9.132;2023-04-24T11:32:29;16.30;86.50
678;DHT22;321;48.814;9.132;2023-04-24T11:37:35;16.60;84.20
678;DHT22;321;48.814;9.132;2023-04-24T11:40:01;16.80;84.00
678;DHT22;321;48.814;9.132;2023-04-24T11:42:28;17.00;84.10
678;DHT22;321;48.814;9.132;2023-04-24T11:44:55;16.90;82.70
678;DHT22;321;48.814;9.132;2023-04-24T11:47:31;16.50;81.90
678;DHT22;321;48.814;9.132;2023-04-24T11:49:59;16.20;88.00
678;DHT22;321;48.814;9.132;2023-04-24T11:52:26;16.10;91.00
678;DHT22;321;48.814;9.132;2023-04-24T11:54:52;16.20;90.50
678;DHT22;321;48.814;9.132;2023-04-24T11:57:21;16.40;88.50
678;DHT22;321;48.814;9.132;2023-04-24T11:59:48;16.60;90.40
678;DHT22;321;48.814;9.132;2023-04-24T12:02:27;17.10;89.80
678;DHT22;321;48.814;9.132;2023-04-24T12:04:53;17.50;87.10
678;DHT22;321;48.814;9.132;2023-04-24T12:07:20;17.60;87.00
678;DHT22;321;48.814;9.132;2023-04-24T12:09:48;17.80;86.30
678;DHT22;321;48.814;9.132;2023-04-24T12:12:15;17.60;83.40
678;DHT22;321;48.814;9.132;2023-04-24T12:14:47;17.60;83.00
678;DHT22;321;48.814;9.132;2023-04-24T12:17:13;17.20;82.20
678;DHT22;321;48.814;9.132;2023-04-24T12:19:45;17.20;85.80
678;DHT22;321;48.814;9.132;2023-04-24T12:22:11;17.10;84.80
678;DHT22;321;48.814;9.132;2023-04-24T12:24:59;16.90;86.50
678;DHT22;321;48.814;9.132;2023-04-24T12:27:26;16.70;86.50
678;DHT22;321;48.814;9.132;2023-04-24T12:30:03;16.60;84.80
678;DHT22;321;48.814;9.132;2023-04-24T12:32:29;16.50;85.20
678;DHT22;321;48.814;9.132;2023-04-24T12:34:55;16.60;86.70
678;DHT22;321;48.814;9.132;2023-04-24T12:37:23;16.30;84.50
678;DHT22;321;48.814;9.132;2023-04-24T12:39:59;15.90;83.80
678;DHT22;321;48.814;9.132;2023-04-24T12:42:27;15.70;88.70
678;DHT22;321;48.814;9.132;2023-04-24T12:44:56;15.70;87.30
678;DHT22;321;48.814;9.132;2023-04-24T12:47:23;15.60;86.40
678;DHT22;321;48.814;9.132;2023-04-24T12:49:49;15.60;86.20
678;DHT22;321;48.814;9.132;2023-04-24T12:52:24;15.60;88.90
678;DHT22;321;48.814;9.132;2023-04-24T12:54:53;15.50;90.00
678;DHT22;321;48.814;9.132;2023-04-24T12:57:18;15.30;89.20
678;DHT22;321;48.814;9.132;2023-04-24T12:59:44;14.80;93.30
678;DHT22;321;48.814;9.132;2023-04-24T13:02:10;14.50;98.10
678;DHT22;321;48.814;9.132;2023-04-24T13:04:36;14.20;99.90
678;DHT22;321;48.814;9.132;2023-04-24T13:07:02;14.10;99.90
678;DHT22;321;48.814;9.132;2023-04-24T13:09:28;14.10;99.90
678;DHT22;321;48.814;9.132;2023-04-24T13:11:54;14.40;99.90
678;DHT22;321;48.814;9.132;2023-04-24T13:14:20;14.70;99.90
678;DHT22;321;48.814;9.132;2023-04-24T13:16:46;14.90;99.90
678;DHT22;321;48.814;9.132;2023-04-24T13:19:11;15.30;99.20
678;DHT22;321;48.814;9.132;2023-04-24T13:21:37;15.70;99.90
678;DHT22;321;48.814;9.132;2023-04-24T13:24:02;15.80;97.50
678;DHT22;321;48.814;9.132;2023-04-24T13:26:30;15.80;95.20
678;DHT22;321;48.814;9.132;2023-04-24T13:28:56;16.00;96.70
678;DHT22;321;48.814;9.132;2023-04-24T13:31:21;15.90;94.10
678;DHT22;321;48.814;9.132;2023-04-24T13:33:47;15.90;94.70
678;DHT22;321;48.814;9.132;2023-04-24T13:36:13;16.20;95.50
678;DHT22;321;48.814;9.132;2023-04-24T13:38:38;16.10;93.90
678;DHT22;321;48.814;9.132;2023-04-24T13:41:04;16.00;93.80
678;DHT22;321;48.814;9.132;2023-04-24T13:43:30;15.80;93.60
678;DHT22;321;48.814;9.132;2023-04-24T13:45:55;15.90;94.80
678;DHT22;321;48.814;9.132;2023-04-24T13:48:21;15.50;94.10
678;DHT22;321;48.814;9.132;2023-04-24T13:50:47;14.80;99.90
678;DHT22;321;48.814;9.132;2023-04-24T13:53:13;14.80;99.90
678;DHT22;321;48.814;9.132;2023-04-24T13:55:39;14.80;99.90
678;DHT22;321;48.814;9.132;2023-04-24T13:58:05;15.00;99.90
678;DHT22;321;48.814;9.132;2023-04-24T14:00:31;15.00;99.90
678;DHT22;321;48.814;9.132;2023-04-24T14:02:57;15.10;99.90
678;DHT22;321;48.814;9.132;2023-04-24T14:05:22;14.90;99.90
678;DHT22;321;48.814;9.132;2023-04-24T14:07:48;14.70;99.90
678;DHT22;321;48.814;9.132;2023-04-24T14:10:14;14.80;99.90
678;DHT22;321;48.814;9.132;2023-04-24T14:12:39;14.90;99.90
678;DHT22;321;48.814;9.132;2023-04-24T14:15:05;15.00;99.20
678;DHT22;321;48.814;9.132;2023-04-24T14:17:31;14.90;99.00
678;DHT22;321;48.814;9.132;2023-04-24T14:19:57;14.80;98.10
678;DHT22;321;48.814;9.132;2023-04-24T14:22:25;14.90;98.00
678;DHT22;321;48.814;9.132;2023-04-24T14:24:50;14.70;97.20
678;DHT22;321;48.814;9.132;2023-04-24T14:27:16;14.60;97.70
678;DHT22;321;48.814;9.132;2023-04-24T14:29:41;14.50;97.00
678;DHT22;321;48.814;9.132;2023-04-24T14:32:07;14.50;97.60
678;DHT22;321;48.814;9.132;2023-04-24T14:34:34;14.40;97.00
678;DHT22;321;48.814;9.132;2023-04-24T14:37:00;14.30;97.40
678;DHT22;321;48.814;9.132;2023-04-24T14:39:25;14.10;97.60
678;DHT22;321;48.814;9.132;2023-04-24T14:41:51;14.00;97.90
678;DHT22;321;48.814;9.132;2023-04-24T14:44:16;14.00;97.10
678;DHT22;321;48.814;9.132;2023-04-24T14:46:42;14.10;97.90
678;DHT22;321;48.814;9.132;2023-04-24T14:49:08;13.90;97.00
678;DHT22;321;48.814;9.132;2023-04-24T14:51:35;14.10;98.50
678;DHT22;321;48.814;9.132;2023-04-24T14:54:01;14.20;98.50
678;DHT22;321;48.814;9.132;2023-04-24T14:56:27;14.30;97.30
678;DHT22;321;48.814;9.132;2023-04-24T14:58:52;14.50;98.20
678;DHT22;321;48.814;9.132;2023-04-24T15:01:18;14.80;98.30
678;DHT22;321;48.814;9.132;2023-04-24T15:03:44;14.90;96.70
678;DHT22;321;48.814;9.132;2023-04-24T15:06:09;15.00;96.60
678;DHT22;321;48.814;9.132;2023-04-24T15:08:35;15.00;97.10
678;DHT22;321;48.814;9.132;2023-04-24T15:11:01;14.60;95.30
678;DHT22;321;48.814;9.132;2023-04-24T15:13:27;14.30;96.80
678;DHT22;321;48.814;9.132;2023-04-24T15:15:52;14.40;97.30
678;DHT22;321;48.814;9.132;2023-04-24T15:18:18;14.50;98.50
678;DHT22;321;48.814;9.132;2023-04-24T15:20:43;14.50;96.70
678;DHT22;321;48.814;9.132;2023-04-24T15:23:09;14.50;97.00
678;DHT22;321;48.814;9.132;2023-04-24T15:25:35;14.70;97.90
678;DHT22;321;48.814;9.132;2023-04-24T15:28:01;14.60;96.30
678;DHT22;321;48.814;9.132;2023-04-24T15:30:27;14.40;99.00
678;DHT22;321;48.814;9.132;2023-04-24T15:32:53;14.10;99.90
678;DHT22;321;48.814;9.132;2023-04-24T15:35:18;13.60;99.90
678;DHT22;321;48.814;9.132;2023-04-24T15:37:44;13.50;99.90
678;DHT22;321;48.814;9.132;2023-04-24T15:40:10;13.30;99.90
678;DHT22;321;48.814;9.132;2023-04-24T15:42:38;13.30;99.90
678;DHT22;321;48.814;9.132;2023-04-24T15:45:04;13.40;99.90
678;DHT22;321;48.814;9.132;2023-04-24T15:47:31;13.40;99.90
678;DHT22;321;48.814;9.132;2023-04-24T15:49:57;13.50;99.90
678;DHT22;321;48.814;9.132;2023-04-24T15:52:23;13.60;99.90
678;DHT22;321;48.814;9.132;2023-04-24T15:54:48;13.70;99.90
678;DHT22;321;48.814;9.132;2023-04-24T15:57:14;13.70;99.90
678;DHT22;321;48.814;9.132;2023-04-24T15:59:40;13.50;99.90
678;DHT22;321;48.814;9.132;2023-04-24T16:02:08;13.60;99.90
678;DHT22;321;48.814;9.132;2023-04-24T16:04:34;13.50;99.90
678;DHT22;321;48.814;9.132;2023-04-24T16:07:00;13.50;99.90
678;DHT22;321;48.814;9.132;2023-04-24T16:09:26;13.40;99.90
678;DHT22;321;48.814;9.132;2023-04-24T16:11:52;13.30;99.90
678;DHT22;321;48.814;9.132;2023-04-24T16:14:18;13.10;99.90
678;DHT22;321;48.814;9.132;2023-04-24T16:16:43;13.10;99.90
678;DHT22;321;48.814;9.132;2023-04-24T16:19:09;13.10;99.90
678;DHT22;321;48.814;9.132;2023-04-24T16:21:35;12.90;99.90
678;DHT22;321;48.814;9.132;2023-04-24T16:24:00;13.00;99.90
678;DHT22;321;48.814;9.132;2023-04-24T16:26:26;12.80;99.90
678;DHT22;321;48.814;9.132;2023-04-24T16:28:52;12.80;99.90
678;DHT22;321;48.814;9.132;2023-04-24T16:31:17;12.80;99.90
678;DHT22;321;48.814;9.132;2023-04-24T16:33:43;12.70;99.90
678;DHT22;321;48.814;9.132;2023-04-24T16:36:09;12.80;99.90
678;DHT22;321;48.814;9.132;2023-04-24T16:38:35;12.80;99.90
678;DHT22;321;48.814;9.132;2023-04-24T16:41:01;12.80;99.90
678;DHT22;321;48.814;9.132;2023-04-24T16:43:26;12.80;99.90
678;DHT22;321;48.814;9.132;2023-04-24T16:45:53;12.90;99.90
678;DHT22;321;48.814;9.132;2023-04-24T16:48:18;13.00;99.90